sensor_id;sensor_type;location;lat;lon;timestamp;pressure;altitude;pressure_sealevel;temperature;humidity
62725;BME280;49026;52.600;4.694;2023-09-18T00:00:24;100634.81;;;16.89;100.00
62725;BME280;49026;52.600;4.694;2023-09-18T00:02:49;100634.72;;;16.90;100.00
62725;BME280;49026;52.600;4.694;2023-09-18T00:05:15;100630.03;;;16.94;100.00
62725;BME280;49026;52.600;4.694;2023-09-18T00:07:43;100629.19;;;16.93;100.00
62725;BME280;49026;52.600;4.694;2023-09-18T00:10:11;100623.78;;;16.95;100.00
62725;BME280;49026;52.600;4.694;2023-09-18T00:12:38;100618.38;;;16.96;100.00
62725;BME280;49026;52.600;4.694;2023-09-18T00:15:04;100611.13;;;16.98;100.00
62725;BME280;49026;52.600;4.694;2023-09-18T00:17:29;100609.31;;;16.99;100.00
62725;BME280;49026;52.600;4.694;2023-09-18T00:19:55;100588.84;;;17.01;100.00
62725;BME280;49026;52.600;4.694;2023-09-18T00:22:20;100584.16;;;17.04;100.00
62725;BME280;49026;52.600;4.694;2023-09-18T00:24:46;100577.03;;;17.05;100.00
62725;BME280;49026;52.600;4.694;2023-09-18T00:27:11;100577.78;;;17.07;100.00
62725;BME280;49026;52.600;4.694;2023-09-18T00:29:36;100573.13;;;17.11;100.00
62725;BME280;49026;52.600;4.694;2023-09-18T00:32:02;100565.88;;;17.13;100.00
62725;BME280;49026;52.600;4.694;2023-09-18T00:34:29;100567.56;;;17.14;100.00
62725;BME280;49026;52.600;4.694;2023-09-18T00:36:57;100558.66;;;17.15;100.00
62725;BME280;49026;52.600;4.694;2023-09-18T00:39:24;100556.00;;;17.15;100.00
62725;BME280;49026;52.600;4.694;2023-09-18T00:41:49;100547.09;;;17.16;100.00
62725;BME280;49026;52.600;4.694;2023-09-18T00:44:19;100551.41;;;17.17;100.00
62725;BME280;49026;52.600;4.694;2023-09-18T00:46:44;100557.44;;;17.19;100.00
62725;BME280;49026;52.600;4.694;2023-09-18T00:49:09;100554.81;;;17.19;100.00
62725;BME280;49026;52.600;4.694;2023-09-18T00:51:35;100554.69;;;17.20;100.00
62725;BME280;49026;52.600;4.694;2023-09-18T00:54:01;100550.97;;;17.23;100.00
62725;BME280;49026;52.600;4.694;2023-09-18T00:56:26;100543.97;;;17.22;100.00
62725;BME280;49026;52.600;4.694;2023-09-18T00:58:52;100533.34;;;17.22;100.00
62725;BME280;49026;52.600;4.694;2023-09-18T01:01:20;100518.28;;;17.22;100.00
62725;BME280;49026;52.600;4.694;2023-09-18T01:03:50;100508.50;;;17.23;100.00
62725;BME280;49026;52.600;4.694;2023-09-18T01:06:16;100502.34;;;17.22;100.00
62725;BME280;49026;52.600;4.694;2023-09-18T01:08:46;100493.63;;;17.20;100.00
62725;BME280;49026;52.600;4.694;2023-09-18T01:13:54;100477.06;;;17.17;100.00
62725;BME280;49026;52.600;4.694;2023-09-18T01:16:34;100460.19;;;17.18;100.00
62725;BME280;49026;52.600;4.694;2023-09-18T01:19:00;100456.72;;;17.17;100.00
62725;BME280;49026;52.600;4.694;2023-09-18T01:21:28;100453.91;;;17.19;100.00
62725;BME280;49026;52.600;4.694;2023-09-18T01:23:53;100453.19;;;17.17;100.00
62725;BME280;49026;52.600;4.694;2023-09-18T01:26:19;100440.53;;;17.20;100.00
62725;BME280;49026;52.600;4.694;2023-09-18T01:28:44;100434.38;;;17.20;100.00
62725;BME280;49026;52.600;4.694;2023-09-18T01:31:11;100436.19;;;17.19;100.00
62725;BME280;49026;52.600;4.694;2023-09-18T01:33:39;100433.44;;;17.21;100.00
62725;BME280;49026;52.600;4.694;2023-09-18T01:36:07;100425.47;;;17.21;100.00
62725;BME280;49026;52.600;4.694;2023-09-18T01:38:33;100426.19;;;17.23;100.00
62725;BME280;49026;52.600;4.694;2023-09-18T01:40:59;100428.84;;;17.23;100.00
62725;BME280;49026;52.600;4.694;2023-09-18T01:43:27;100425.09;;;17.26;100.00
62725;BME280;49026;52.600;4.694;2023-09-18T01:45:52;100416.06;;;17.28;100.00
62725;BME280;49026;52.600;4.694;2023-09-18T01:48:18;100412.19;;;17.32;100.00
62725;BME280;49026;52.600;4.694;2023-09-18T01:50:44;100406.06;;;17.32;100.00
62725;BME280;49026;52.600;4.694;2023-09-18T01:53:09;100403.28;;;17.33;100.00
62725;BME280;49026;52.600;4.694;2023-09-18T01:55:40;100403.28;;;17.33;100.00
62725;BME280;49026;52.600;4.694;2023-09-18T01:58:06;100403.28;;;17.33;100.00
62725;BME280;49026;52.600;4.694;2023-09-18T02:00:31;100409.53;;;17.32;100.00
62725;BME280;49026;52.600;4.694;2023-09-18T02:02:59;100410.31;;;17.34;100.00
62725;BME280;49026;52.600;4.694;2023-09-18T02:05:24;100407.41;;;17.37;100.00
62725;BME280;49026;52.600;4.694;2023-09-18T02:07:52;100408.16;;;17.39;100.00
62725;BME280;49026;52.600;4.694;2023-09-18T02:10:17;100413.22;;;17.43;100.00
62725;BME280;49026;52.600;4.694;2023-09-18T02:12:42;100410.31;;;17.46;100.00
62725;BME280;49026;52.600;4.694;2023-09-18T02:15:08;100419.75;;;17.50;100.00
62725;BME280;49026;52.600;4.694;2023-09-18T02:17:36;100420.38;;;17.53;100.00
62725;BME280;49026;52.600;4.694;2023-09-18T02:20:03;100404.31;;;17.55;100.00
62725;BME280;49026;52.600;4.694;2023-09-18T02:22:35;100409.41;;;17.58;100.00
62725;BME280;49026;52.600;4.694;2023-09-18T02:25:01;100403.97;;;17.59;100.00
62725;BME280;49026;52.600;4.694;2023-09-18T02:27:26;100397.78;;;17.59;100.00
62725;BME280;49026;52.600;4.694;2023-09-18T02:29:52;100402.03;;;17.62;100.00
62725;BME280;49026;52.600;4.694;2023-09-18T02:32:18;100401.81;;;17.65;100.00
62725;BME280;49026;52.600;4.694;2023-09-18T02:34:44;100395.50;;;17.66;100.00
62725;BME280;49026;52.600;4.694;2023-09-18T02:37:14;100390.81;;;17.69;100.00
62725;BME280;49026;52.600;4.694;2023-09-18T02:39:39;100392.28;;;17.73;100.00
62725;BME280;49026;52.600;4.694;2023-09-18T02:42:06;100382.34;;;17.75;100.00
62725;BME280;49026;52.600;4.694;2023-09-18T02:44:31;100384.78;;;17.78;100.00
62725;BME280;49026;52.600;4.694;2023-09-18T02:46:59;100383.72;;;17.81;100.00
62725;BME280;49026;52.600;4.694;2023-09-18T02:49:24;100383.47;;;17.84;100.00
62725;BME280;49026;52.600;4.694;2023-09-18T02:51:49;100374.31;;;17.88;100.00
62725;BME280;49026;52.600;4.694;2023-09-18T02:54:15;100375.91;;;17.91;100.00
62725;BME280;49026;52.600;4.694;2023-09-18T02:56:40;100363.34;;;17.93;100.00
62725;BME280;49026;52.600;4.694;2023-09-18T02:59:05;100356.06;;;17.95;100.00
62725;BME280;49026;52.600;4.694;2023-09-18T03:01:31;100350.75;;;17.95;100.00
62725;BME280;49026;52.600;4.694;2023-09-18T03:03:56;100332.75;;;17.99;100.00
62725;BME280;49026;52.600;4.694;2023-09-18T03:06:21;100330.09;;;17.99;100.00
62725;BME280;49026;52.600;4.694;2023-09-18T03:08:47;100337.94;;;18.00;100.00
62725;BME280;49026;52.600;4.694;2023-09-18T03:11:13;100323.69;;;18.01;100.00
62725;BME280;49026;52.600;4.694;2023-09-18T03:13:45;100311.13;;;18.03;100.00
62725;BME280;49026;52.600;4.694;2023-09-18T03:16:14;100305.81;;;18.03;100.00
62725;BME280;49026;52.600;4.694;2023-09-18T03:18:39;100300.50;;;18.03;100.00
62725;BME280;49026;52.600;4.694;2023-09-18T03:21:07;100292.63;;;18.02;100.00
62725;BME280;49026;52.600;4.694;2023-09-18T03:23:34;100290.94;;;18.01;100.00
62725;BME280;49026;52.600;4.694;2023-09-18T03:26:00;100270.78;;;17.98;100.00
62725;BME280;49026;52.600;4.694;2023-09-18T03:28:25;100271.84;;;17.95;100.00
62725;BME280;49026;52.600;4.694;2023-09-18T03:30:51;100270.31;;;17.93;100.00
62725;BME280;49026;52.600;4.694;2023-09-18T03:33:16;100258.97;;;17.91;98.89
62725;BME280;49026;52.600;4.694;2023-09-18T03:35:48;100236.00;;;17.90;97.37
62725;BME280;49026;52.600;4.694;2023-09-18T03:38:15;100231.84;;;17.86;96.31
62725;BME280;49026;52.600;4.694;2023-09-18T03:40:40;100261.06;;;17.86;95.48
62725;BME280;49026;52.600;4.694;2023-09-18T03:43:06;100271.97;;;17.83;94.99
62725;BME280;49026;52.600;4.694;2023-09-18T03:45:32;100263.88;;;17.84;95.18
62725;BME280;49026;52.600;4.694;2023-09-18T03:47:57;100262.81;;;17.87;96.57
62725;BME280;49026;52.600;4.694;2023-09-18T03:50:23;100252.66;;;17.92;96.27
62725;BME280;49026;52.600;4.694;2023-09-18T03:52:55;100235.50;;;17.96;95.11
62725;BME280;49026;52.600;4.694;2023-09-18T03:55:21;100224.59;;;17.99;95.14
62725;BME280;49026;52.600;4.694;2023-09-18T03:57:46;100235.84;;;18.03;94.24
62725;BME280;49026;52.600;4.694;2023-09-18T04:00:13;100230.25;;;18.06;94.48
62725;BME280;49026;52.600;4.694;2023-09-18T04:02:39;100232.78;;;18.07;93.51
62725;BME280;49026;52.600;4.694;2023-09-18T04:05:05;100228.09;;;18.11;94.39
62725;BME280;49026;52.600;4.694;2023-09-18T04:07:32;100227.00;;;18.13;93.87
62725;BME280;49026;52.600;4.694;2023-09-18T04:09:58;100235.44;;;18.19;93.35
62725;BME280;49026;52.600;4.694;2023-09-18T04:12:26;100223.72;;;18.21;94.81
62725;BME280;49026;52.600;4.694;2023-09-18T04:14:51;100222.72;;;18.22;93.45
62725;BME280;49026;52.600;4.694;2023-09-18T04:17:17;100220.94;;;18.23;92.63
62725;BME280;49026;52.600;4.694;2023-09-18T04:19:42;100211.97;;;18.24;92.64
62725;BME280;49026;52.600;4.694;2023-09-18T04:22:08;100197.00;;;18.23;91.88
62725;BME280;49026;52.600;4.694;2023-09-18T04:24:34;100213.91;;;18.22;91.75
62725;BME280;49026;52.600;4.694;2023-09-18T04:27:01;100223.72;;;18.21;92.16
62725;BME280;49026;52.600;4.694;2023-09-18T04:29:27;100235.19;;;18.22;93.14
62725;BME280;49026;52.600;4.694;2023-09-18T04:31:52;100247.91;;;18.18;92.66
62725;BME280;49026;52.600;4.694;2023-09-18T04:34:21;100288.75;;;18.06;95.73
62725;BME280;49026;52.600;4.694;2023-09-18T04:36:47;100310.78;;;17.96;99.28
62725;BME280;49026;52.600;4.694;2023-09-18T04:39:15;100317.66;;;17.88;100.00
62725;BME280;49026;52.600;4.694;2023-09-18T04:41:43;100303.59;;;17.86;100.00
62725;BME280;49026;52.600;4.694;2023-09-18T04:44:08;100283.31;;;17.85;100.00
62725;BME280;49026;52.600;4.694;2023-09-18T04:46:34;100263.66;;;17.87;100.00
62725;BME280;49026;52.600;4.694;2023-09-18T04:49:03;100248.56;;;17.88;100.00
62725;BME280;49026;52.600;4.694;2023-09-18T04:51:31;100236.00;;;17.90;100.00
62725;BME280;49026;52.600;4.694;2023-09-18T04:53:57;100260.63;;;17.92;100.00
62725;BME280;49026;52.600;4.694;2023-09-18T04:56:23;100244.69;;;17.92;100.00
62725;BME280;49026;52.600;4.694;2023-09-18T04:58:51;100238.53;;;17.91;100.00
62725;BME280;49026;52.600;4.694;2023-09-18T05:01:16;100228.13;;;17.88;100.00
62725;BME280;49026;52.600;4.694;2023-09-18T05:03:45;100213.03;;;17.89;100.00
62725;BME280;49026;52.600;4.694;2023-09-18T05:06:12;100194.53;;;17.87;100.00
62725;BME280;49026;52.600;4.694;2023-09-18T05:08:38;100190.31;;;17.85;100.00
62725;BME280;49026;52.600;4.694;2023-09-18T05:11:06;100184.00;;;17.86;100.00
62725;BME280;49026;52.600;4.694;2023-09-18T05:13:34;100174.50;;;17.83;100.00
62725;BME280;49026;52.600;4.694;2023-09-18T05:15:59;100181.75;;;17.81;100.00
62725;BME280;49026;52.600;4.694;2023-09-18T05:18:28;100180.88;;;17.81;98.56
62725;BME280;49026;52.600;4.694;2023-09-18T05:20:56;100173.78;;;17.81;97.27
62725;BME280;49026;52.600;4.694;2023-09-18T05:23:21;100179.91;;;17.82;94.99
62725;BME280;49026;52.600;4.694;2023-09-18T05:25:49;100171.81;;;17.83;93.77
62725;BME280;49026;52.600;4.694;2023-09-18T05:28:14;100166.41;;;17.85;91.85
62725;BME280;49026;52.600;4.694;2023-09-18T05:30:39;100159.16;;;17.87;91.17
62725;BME280;49026;52.600;4.694;2023-09-18T05:33:06;100157.09;;;17.90;91.88
62725;BME280;49026;52.600;4.694;2023-09-18T05:35:50;100164.00;;;17.93;92.15
62725;BME280;49026;52.600;4.694;2023-09-18T05:38:16;100167.22;;;17.96;92.18
62725;BME280;49026;52.600;4.694;2023-09-18T05:40:43;100156.59;;;17.96;91.93
62725;BME280;49026;52.600;4.694;2023-09-18T05:43:10;100151.03;;;18.00;91.94
62725;BME280;49026;52.600;4.694;2023-09-18T05:45:38;100139.16;;;18.04;93.61
62725;BME280;49026;52.600;4.694;2023-09-18T05:48:05;100144.09;;;18.08;94.50
62725;BME280;49026;52.600;4.694;2023-09-18T05:50:32;100149.22;;;18.00;94.62
62725;BME280;49026;52.600;4.694;2023-09-18T05:53:03;100139.09;;;17.83;95.11
62725;BME280;49026;52.600;4.694;2023-09-18T05:55:34;100145.91;;;17.64;95.09
62725;BME280;49026;52.600;4.694;2023-09-18T05:58:00;100165.47;;;17.52;95.33
62725;BME280;49026;52.600;4.694;2023-09-18T06:00:26;100149.31;;;17.44;95.12
62725;BME280;49026;52.600;4.694;2023-09-18T06:02:51;100154.75;;;17.42;95.61
62725;BME280;49026;52.600;4.694;2023-09-18T06:05:18;100154.88;;;17.40;95.44
62725;BME280;49026;52.600;4.694;2023-09-18T06:07:49;100154.88;;;17.40;95.46
62725;BME280;49026;52.600;4.694;2023-09-18T06:10:15;100152.94;;;17.43;94.97
62725;BME280;49026;52.600;4.694;2023-09-18T06:12:41;100167.53;;;17.48;95.17
62725;BME280;49026;52.600;4.694;2023-09-18T06:15:07;100171.78;;;17.51;96.98
62725;BME280;49026;52.600;4.694;2023-09-18T06:17:45;100179.59;;;17.52;97.76
62725;BME280;49026;52.600;4.694;2023-09-18T06:20:11;100199.06;;;17.53;97.63
62725;BME280;49026;52.600;4.694;2023-09-18T06:22:44;100207.03;;;17.53;96.74
62725;BME280;49026;52.600;4.694;2023-09-18T06:25:09;100209.69;;;17.53;96.13
62725;BME280;49026;52.600;4.694;2023-09-18T06:27:41;100203.38;;;17.54;96.86
62725;BME280;49026;52.600;4.694;2023-09-18T06:30:07;100204.25;;;17.54;96.82
62725;BME280;49026;52.600;4.694;2023-09-18T06:32:35;100196.28;;;17.54;97.24
62725;BME280;49026;52.600;4.694;2023-09-18T06:35:02;100203.50;;;17.52;97.97
62725;BME280;49026;52.600;4.694;2023-09-18T06:37:27;100209.91;;;17.50;98.62
62725;BME280;49026;52.600;4.694;2023-09-18T06:39:55;100200.25;;;17.49;100.00
62725;BME280;49026;52.600;4.694;2023-09-18T06:42:22;100199.41;;;17.48;100.00
62725;BME280;49026;52.600;4.694;2023-09-18T06:44:49;100197.59;;;17.49;100.00
62725;BME280;49026;52.600;4.694;2023-09-18T06:47:14;100181.66;;;17.49;100.00
62725;BME280;49026;52.600;4.694;2023-09-18T06:49:41;100176.09;;;17.52;100.00
62725;BME280;49026;52.600;4.694;2023-09-18T06:52:07;100167.91;;;17.55;100.00
62725;BME280;49026;52.600;4.694;2023-09-18T06:54:35;100166.81;;;17.57;100.00
62725;BME280;49026;52.600;4.694;2023-09-18T06:57:01;100176.09;;;17.63;100.00
62725;BME280;49026;52.600;4.694;2023-09-18T06:59:27;100166.91;;;17.67;100.00
62725;BME280;49026;52.600;4.694;2023-09-18T07:01:52;100163.28;;;17.68;100.00
62725;BME280;49026;52.600;4.694;2023-09-18T07:04:17;100164.13;;;17.69;100.00
62725;BME280;49026;52.600;4.694;2023-09-18T07:06:46;100153.50;;;17.69;100.00
62725;BME280;49026;52.600;4.694;2023-09-18T07:09:11;100150.97;;;17.67;100.00
62725;BME280;49026;52.600;4.694;2023-09-18T07:11:37;100146.38;;;17.69;100.00
62725;BME280;49026;52.600;4.694;2023-09-18T07:14:03;100139.84;;;17.73;100.00
62725;BME280;49026;52.600;4.694;2023-09-18T07:16:31;100136.69;;;17.80;100.00
62725;BME280;49026;52.600;4.694;2023-09-18T07:18:59;100131.50;;;17.89;100.00
62725;BME280;49026;52.600;4.694;2023-09-18T07:21:24;100148.50;;;17.98;100.00
62725;BME280;49026;52.600;4.694;2023-09-18T07:23:52;100145.59;;;18.01;100.00
62725;BME280;49026;52.600;4.694;2023-09-18T07:26:17;100150.78;;;18.03;100.00
62725;BME280;49026;52.600;4.694;2023-09-18T07:28:42;100153.56;;;18.01;100.00
62725;BME280;49026;52.600;4.694;2023-09-18T07:31:12;100158.75;;;18.03;100.00
62725;BME280;49026;52.600;4.694;2023-09-18T07:33:41;100151.63;;;18.03;100.00
62725;BME280;49026;52.600;4.694;2023-09-18T07:36:09;100154.63;;;18.10;100.00
62725;BME280;49026;52.600;4.694;2023-09-18T07:38:37;100148.94;;;18.14;100.00
62725;BME280;49026;52.600;4.694;2023-09-18T07:41:08;100151.19;;;18.19;100.00
62725;BME280;49026;52.600;4.694;2023-09-18T07:43:33;100157.38;;;18.20;100.00
62725;BME280;49026;52.600;4.694;2023-09-18T07:45:59;100160.84;;;18.20;100.00
62725;BME280;49026;52.600;4.694;2023-09-18T07:48:26;100161.69;;;18.21;100.00
62725;BME280;49026;52.600;4.694;2023-09-18T07:50:56;100164.81;;;18.26;100.00
62725;BME280;49026;52.600;4.694;2023-09-18T07:53:21;100173.44;;;18.39;100.00
62725;BME280;49026;52.600;4.694;2023-09-18T07:55:48;100178.47;;;18.54;100.00
62725;BME280;49026;52.600;4.694;2023-09-18T07:58:23;100182.28;;;18.61;100.00
62725;BME280;49026;52.600;4.694;2023-09-18T08:00:53;100186.34;;;18.76;100.00
62725;BME280;49026;52.600;4.694;2023-09-18T08:03:19;100193.16;;;18.90;100.00
62725;BME280;49026;52.600;4.694;2023-09-18T08:05:44;100187.19;;;18.98;100.00
62725;BME280;49026;52.600;4.694;2023-09-18T08:08:12;100191.53;;;18.99;100.00
62725;BME280;49026;52.600;4.694;2023-09-18T08:10:40;100199.44;;;19.10;100.00
62725;BME280;49026;52.600;4.694;2023-09-18T08:13:08;100201.59;;;19.26;100.00
62725;BME280;49026;52.600;4.694;2023-09-18T08:15:34;100197.06;;;19.38;100.00
62725;BME280;49026;52.600;4.694;2023-09-18T08:17:59;100211.09;;;19.40;100.00
62725;BME280;49026;52.600;4.694;2023-09-18T08:20:26;100213.66;;;19.51;100.00
62725;BME280;49026;52.600;4.694;2023-09-18T08:22:53;100202.16;;;19.60;100.00
62725;BME280;49026;52.600;4.694;2023-09-18T08:25:21;100210.41;;;19.88;100.00
62725;BME280;49026;52.600;4.694;2023-09-18T08:27:47;100203.44;;;20.36;100.00
62725;BME280;49026;52.600;4.694;2023-09-18T08:30:15;100209.34;;;20.69;100.00
62725;BME280;49026;52.600;4.694;2023-09-18T08:32:46;100215.53;;;20.79;100.00
62725;BME280;49026;52.600;4.694;2023-09-18T08:35:12;100212.28;;;20.76;100.00
62725;BME280;49026;52.600;4.694;2023-09-18T08:37:40;100207.38;;;20.71;100.00
62725;BME280;49026;52.600;4.694;2023-09-18T08:40:06;100220.31;;;20.66;100.00
62725;BME280;49026;52.600;4.694;2023-09-18T08:42:35;100225.91;;;20.72;100.00
62725;BME280;49026;52.600;4.694;2023-09-18T08:45:09;100226.75;;;20.83;100.00
62725;BME280;49026;52.600;4.694;2023-09-18T08:47:37;100218.19;;;20.69;100.00
62725;BME280;49026;52.600;4.694;2023-09-18T08:50:04;100223.53;;;20.69;100.00
62725;BME280;49026;52.600;4.694;2023-09-18T08:52:30;100210.44;;;20.86;98.21
62725;BME280;49026;52.600;4.694;2023-09-18T08:54:58;100216.88;;;20.93;97.85
62725;BME280;49026;52.600;4.694;2023-09-18T08:57:27;100211.38;;;21.04;94.34
62725;BME280;49026;52.600;4.694;2023-09-18T08:59:54;100208.69;;;21.14;93.65
62725;BME280;49026;52.600;4.694;2023-09-18T09:02:20;100216.69;;;21.24;95.78
62725;BME280;49026;52.600;4.694;2023-09-18T09:04:45;100215.72;;;21.15;94.20
62725;BME280;49026;52.600;4.694;2023-09-18T09:07:11;100211.81;;;21.00;95.28
62725;BME280;49026;52.600;4.694;2023-09-18T09:09:39;100214.88;;;21.15;96.07
62725;BME280;49026;52.600;4.694;2023-09-18T09:12:08;100208.00;;;21.12;93.27
62725;BME280;49026;52.600;4.694;2023-09-18T09:14:36;100201.44;;;20.97;94.71
62725;BME280;49026;52.600;4.694;2023-09-18T09:17:04;100219.41;;;21.04;95.72
62725;BME280;49026;52.600;4.694;2023-09-18T09:19:30;100218.50;;;21.23;95.18
62725;BME280;49026;52.600;4.694;2023-09-18T09:21:58;100205.06;;;21.43;94.37
62725;BME280;49026;52.600;4.694;2023-09-18T09:24:49;100197.28;;;21.59;91.38
62725;BME280;49026;52.600;4.694;2023-09-18T09:27:15;100225.47;;;21.54;91.10
62725;BME280;49026;52.600;4.694;2023-09-18T09:29:57;100225.97;;;21.67;92.56
62725;BME280;49026;52.600;4.694;2023-09-18T09:32:24;100233.41;;;21.91;93.08
62725;BME280;49026;52.600;4.694;2023-09-18T09:34:57;100229.41;;;21.77;90.53
62725;BME280;49026;52.600;4.694;2023-09-18T09:37:31;100233.13;;;21.67;90.57
62725;BME280;49026;52.600;4.694;2023-09-18T09:39:56;100221.03;;;21.62;91.32
62725;BME280;49026;52.600;4.694;2023-09-18T09:42:21;100230.44;;;21.67;91.41
62725;BME280;49026;52.600;4.694;2023-09-18T09:45:11;100241.69;;;21.98;88.94
62725;BME280;49026;52.600;4.694;2023-09-18T09:47:37;100222.22;;;21.78;92.16
62725;BME280;49026;52.600;4.694;2023-09-18T09:50:10;100222.88;;;21.62;91.65
62725;BME280;49026;52.600;4.694;2023-09-18T09:52:41;100221.28;;;21.32;89.46
62725;BME280;49026;52.600;4.694;2023-09-18T09:57:50;100239.91;;;21.14;92.02
62725;BME280;49026;52.600;4.694;2023-09-18T10:00:16;100234.03;;;21.10;90.82
62725;BME280;49026;52.600;4.694;2023-09-18T10:02:57;100219.47;;;20.85;89.79
62725;BME280;49026;52.600;4.694;2023-09-18T10:05:26;100235.75;;;20.62;89.72
62725;BME280;49026;52.600;4.694;2023-09-18T10:07:54;100229.84;;;20.49;90.44
62725;BME280;49026;52.600;4.694;2023-09-18T10:10:24;100246.00;;;20.38;90.52
62725;BME280;49026;52.600;4.694;2023-09-18T10:12:53;100239.13;;;20.45;88.45
62725;BME280;49026;52.600;4.694;2023-09-18T10:15:22;100239.13;;;20.64;88.56
62725;BME280;49026;52.600;4.694;2023-09-18T10:17:50;100229.75;;;20.70;89.01
62725;BME280;49026;52.600;4.694;2023-09-18T10:20:27;100229.41;;;20.83;88.41
62725;BME280;49026;52.600;4.694;2023-09-18T10:22:56;100243.31;;;20.86;87.72
62725;BME280;49026;52.600;4.694;2023-09-18T10:25:29;100228.84;;;20.89;88.17
62725;BME280;49026;52.600;4.694;2023-09-18T10:27:57;100247.22;;;21.12;87.30
62725;BME280;49026;52.600;4.694;2023-09-18T10:30:26;100237.41;;;21.40;84.81
62725;BME280;49026;52.600;4.694;2023-09-18T10:32:52;100238.78;;;21.63;86.53
62725;BME280;49026;52.600;4.694;2023-09-18T10:35:18;100225.47;;;21.99;84.72
62725;BME280;49026;52.600;4.694;2023-09-18T10:37:48;100229.94;;;22.09;83.55
62725;BME280;49026;52.600;4.694;2023-09-18T10:40:18;100243.19;;;22.46;82.01
62725;BME280;49026;52.600;4.694;2023-09-18T10:42:46;100231.81;;;22.62;82.64
62725;BME280;49026;52.600;4.694;2023-09-18T10:45:11;100244.31;;;22.62;81.72
62725;BME280;49026;52.600;4.694;2023-09-18T10:47:42;100245.19;;;22.44;79.71
62725;BME280;49026;52.600;4.694;2023-09-18T10:50:10;100243.41;;;22.17;82.57
62725;BME280;49026;52.600;4.694;2023-09-18T10:52:42;100252.34;;;22.26;83.47
62725;BME280;49026;52.600;4.694;2023-09-18T10:55:11;100245.59;;;22.21;82.63
62725;BME280;49026;52.600;4.694;2023-09-18T10:57:37;100248.19;;;22.13;80.41
62725;BME280;49026;52.600;4.694;2023-09-18T11:00:05;100262.88;;;22.09;83.99
62725;BME280;49026;52.600;4.694;2023-09-18T11:02:40;100252.75;;;22.03;82.73
62725;BME280;49026;52.600;4.694;2023-09-18T11:05:08;100258.19;;;22.39;83.35
62725;BME280;49026;52.600;4.694;2023-09-18T11:07:33;100252.72;;;22.85;83.77
62725;BME280;49026;52.600;4.694;2023-09-18T11:09:59;100248.09;;;22.95;77.09
62725;BME280;49026;52.600;4.694;2023-09-18T11:12:42;100268.06;;;22.56;76.17
62725;BME280;49026;52.600;4.694;2023-09-18T11:15:08;100251.25;;;22.18;79.21
62725;BME280;49026;52.600;4.694;2023-09-18T11:17:39;100261.78;;;22.30;83.27
62725;BME280;49026;52.600;4.694;2023-09-18T11:22:35;100260.69;;;22.58;80.01
62725;BME280;49026;52.600;4.694;2023-09-18T11:28:00;100271.41;;;22.58;76.13
62725;BME280;49026;52.600;4.694;2023-09-18T11:30:29;100265.00;;;22.51;80.57
62725;BME280;49026;52.600;4.694;2023-09-18T11:32:55;100271.66;;;22.47;80.14
62725;BME280;49026;52.600;4.694;2023-09-18T11:35:21;100266.03;;;22.76;79.64
62725;BME280;49026;52.600;4.694;2023-09-18T11:37:47;100261.50;;;23.13;80.98
62725;BME280;49026;52.600;4.694;2023-09-18T11:40:28;100259.03;;;23.02;77.74
62725;BME280;49026;52.600;4.694;2023-09-18T11:43:20;100262.00;;;22.90;78.71
62725;BME280;49026;52.600;4.694;2023-09-18T11:45:53;100260.03;;;22.56;77.18
62725;BME280;49026;52.600;4.694;2023-09-18T11:48:27;100255.59;;;22.47;79.79
62725;BME280;49026;52.600;4.694;2023-09-18T11:50:56;100240.22;;;22.93;79.02
62725;BME280;49026;52.600;4.694;2023-09-18T11:53:23;100249.03;;;23.04;78.36
62725;BME280;49026;52.600;4.694;2023-09-18T11:55:51;100247.47;;;23.19;78.86
62725;BME280;49026;52.600;4.694;2023-09-18T11:58:20;100250.38;;;23.68;76.21
62725;BME280;49026;52.600;4.694;2023-09-18T12:00:49;100204.59;;;23.96;75.07
62725;BME280;49026;52.600;4.694;2023-09-18T12:03:15;100254.78;;;23.70;76.33
62725;BME280;49026;52.600;4.694;2023-09-18T12:05:44;100236.94;;;23.60;74.06
62725;BME280;49026;52.600;4.694;2023-09-18T12:08:11;100238.00;;;23.67;76.49
62725;BME280;49026;52.600;4.694;2023-09-18T12:10:36;100247.88;;;24.10;74.72
62725;BME280;49026;52.600;4.694;2023-09-18T12:13:06;100241.19;;;24.22;76.01
62725;BME280;49026;52.600;4.694;2023-09-18T12:15:34;100244.25;;;24.44;74.87
62725;BME280;49026;52.600;4.694;2023-09-18T12:18:05;100212.88;;;24.77;71.43
62725;BME280;49026;52.600;4.694;2023-09-18T12:20:31;100252.19;;;24.78;71.23
62725;BME280;49026;52.600;4.694;2023-09-18T12:22:59;100252.47;;;24.42;72.87
62725;BME280;49026;52.600;4.694;2023-09-18T12:25:26;100238.13;;;24.00;74.11
62725;BME280;49026;52.600;4.694;2023-09-18T12:27:54;100253.56;;;23.98;74.43
62725;BME280;49026;52.600;4.694;2023-09-18T12:30:21;100253.97;;;24.36;72.46
62725;BME280;49026;52.600;4.694;2023-09-18T12:32:49;100248.94;;;24.33;73.74
62725;BME280;49026;52.600;4.694;2023-09-18T12:35:14;100256.41;;;23.62;69.82
62725;BME280;49026;52.600;4.694;2023-09-18T12:37:41;100249.47;;;23.17;74.00
62725;BME280;49026;52.600;4.694;2023-09-18T12:40:20;100251.28;;;23.43;75.82
62725;BME280;49026;52.600;4.694;2023-09-18T12:42:48;100241.19;;;23.71;73.35
62725;BME280;49026;52.600;4.694;2023-09-18T12:45:17;100231.63;;;24.19;70.21
62725;BME280;49026;52.600;4.694;2023-09-18T12:47:43;100225.44;;;24.35;71.27
62725;BME280;49026;52.600;4.694;2023-09-18T12:50:12;100218.06;;;24.46;72.51
62725;BME280;49026;52.600;4.694;2023-09-18T12:52:38;100222.97;;;24.67;70.57
62725;BME280;49026;52.600;4.694;2023-09-18T12:55:03;100214.53;;;25.03;71.00
62725;BME280;49026;52.600;4.694;2023-09-18T12:57:31;100213.94;;;25.40;71.55